createdAt,value
2018-04-14T00:00:25.676Z,9.09
2018-04-14T00:02:55.442Z,9.09
2018-04-14T00:05:24.497Z,9.13
2018-04-14T00:07:53.455Z,9.14
2018-04-14T00:10:22.658Z,9.10
2018-04-14T00:12:51.856Z,9.09
2018-04-14T00:15:20.740Z,9.08
2018-04-14T00:17:49.762Z,9.05
2018-04-14T00:20:20.420Z,9.03
2018-04-14T00:22:49.571Z,9.07
2018-04-14T00:25:18.777Z,9.00
2018-04-14T00:27:47.969Z,9.02
2018-04-14T00:30:17.790Z,9.06
2018-04-14T00:32:48.635Z,9.02
2018-04-14T00:35:17.620Z,8.88
2018-04-14T00:37:47.287Z,8.68
2018-04-14T00:40:16.238Z,8.25
2018-04-14T00:42:45.063Z,7.98
2018-04-14T00:45:14.387Z,7.99
2018-04-14T00:47:45.221Z,8.08
2018-04-14T00:50:14.308Z,8.08
2018-04-14T00:52:44.299Z,8.05
2018-04-14T00:55:13.467Z,8.05
2018-04-14T00:57:42.551Z,8.08
2018-04-14T01:00:11.715Z,8.17
2018-04-14T01:02:40.720Z,8.17
2018-04-14T01:05:09.961Z,8.22
2018-04-14T01:07:38.801Z,8.32
2018-04-14T01:10:08.098Z,8.39
2018-04-14T01:12:37.734Z,8.45
2018-04-14T01:15:06.706Z,8.53
2018-04-14T01:17:36.519Z,8.61
2018-04-14T01:20:05.511Z,8.61
2018-04-14T01:22:34.732Z,8.64
2018-04-14T01:25:04.694Z,8.69
2018-04-14T01:27:34.475Z,8.72
2018-04-14T01:30:04.458Z,8.74
2018-04-14T01:32:35.264Z,8.79
2018-04-14T01:35:06.285Z,8.80
2018-04-14T01:37:35.267Z,8.85
2018-04-14T01:40:07.917Z,8.90
2018-04-14T01:42:37.105Z,8.92
2018-04-14T01:45:06.041Z,8.95
2018-04-14T01:47:35.500Z,8.97
2018-04-14T01:50:04.608Z,9.05
2018-04-14T01:52:34.450Z,9.07
2018-04-14T01:55:05.895Z,9.09
2018-04-14T01:57:35.866Z,9.01
2018-04-14T02:00:05.079Z,9.04
2018-04-14T02:02:35.004Z,9.08
2018-04-14T02:05:04.922Z,9.13
2018-04-14T02:07:33.904Z,9.15
2018-04-14T02:10:03.139Z,9.19
2018-04-14T02:12:32.882Z,9.20
2018-04-14T02:15:02.740Z,9.21
2018-04-14T02:17:32.643Z,9.23
2018-04-14T02:20:01.625Z,9.20
2018-04-14T02:22:30.841Z,9.19
2018-04-14T02:24:59.831Z,9.18
2018-04-14T02:27:28.928Z,9.16
2018-04-14T02:29:57.964Z,9.14
2018-04-14T02:32:26.966Z,9.15
2018-04-14T02:34:57.036Z,9.13
2018-04-14T02:37:26.232Z,9.11
2018-04-14T02:39:55.881Z,9.06
2018-04-14T02:42:24.947Z,9.00
2018-04-14T02:44:55.071Z,9.00
2018-04-14T02:47:24.189Z,9.01
2018-04-14T02:49:53.256Z,9.03
2018-04-14T02:52:23.061Z,9.03
2018-04-14T02:54:52.106Z,9.02
2018-04-14T02:57:22.077Z,9.07
2018-04-14T02:59:51.217Z,9.05
2018-04-14T03:02:20.379Z,9.05
2018-04-14T03:04:50.300Z,9.07
2018-04-14T03:07:19.283Z,9.04
2018-04-14T03:12:23.275Z,8.94
2018-04-14T03:14:53.813Z,8.93
2018-04-14T03:17:23.761Z,8.93
2018-04-14T03:19:52.954Z,8.93
2018-04-14T03:22:22.152Z,8.91
2018-04-14T03:24:51.257Z,8.93
2018-04-14T03:27:20.285Z,8.91
2018-04-14T03:29:49.343Z,8.83
2018-04-14T03:32:19.308Z,8.83
2018-04-14T03:34:48.359Z,8.82
2018-04-14T03:37:17.472Z,8.82
2018-04-14T03:39:47.404Z,8.81
2018-04-14T03:42:17.176Z,8.82
2018-04-14T03:44:47.193Z,8.75
2018-04-14T03:47:18.858Z,8.62
2018-04-14T03:49:48.976Z,8.65
2018-04-14T03:52:18.062Z,8.65
2018-04-14T03:54:48.786Z,8.66
2018-04-14T03:57:17.901Z,8.70
2018-04-14T03:59:46.995Z,8.77
2018-04-14T04:02:17.048Z,8.67
2018-04-14T04:04:46.060Z,8.73
2018-04-14T04:07:15.001Z,8.90
2018-04-14T04:09:56.198Z,9.02
2018-04-14T04:12:25.389Z,9.13
2018-04-14T04:14:54.372Z,9.23
2018-04-14T04:20:17.383Z,9.41
2018-04-14T04:22:58.116Z,9.43
2018-04-14T04:25:40.214Z,9.46
2018-04-14T04:28:09.130Z,9.24
2018-04-14T04:30:37.809Z,9.05
2018-04-14T04:33:06.625Z,9.07
2018-04-14T04:35:36.197Z,9.25
2018-04-14T04:38:04.989Z,9.41
2018-04-14T04:40:36.228Z,9.49
2018-04-14T04:43:05.107Z,9.52
2018-04-14T04:45:33.806Z,9.54
2018-04-14T04:48:05.149Z,9.37
2018-04-14T04:50:34.248Z,9.20
2018-04-14T04:53:03.961Z,9.34
2018-04-14T04:55:34.629Z,9.44
2018-04-14T04:58:04.097Z,9.53
2018-04-14T05:00:33.854Z,9.41
2018-04-14T05:03:04.443Z,9.12
2018-04-14T05:05:33.136Z,9.26
2018-04-14T05:08:02.676Z,9.34
2018-04-14T05:10:32.183Z,9.41
2018-04-14T05:13:00.828Z,9.27
2018-04-14T05:15:29.417Z,9.15
2018-04-14T05:18:03.325Z,8.79
2018-04-14T05:20:32.007Z,9.01
2018-04-14T05:23:00.690Z,9.05
2018-04-14T05:25:30.853Z,9.12
2018-04-14T05:27:59.556Z,9.12
2018-04-14T05:30:29.317Z,8.92
2018-04-14T05:32:58.923Z,8.70
2018-04-14T05:35:28.508Z,8.89
2018-04-14T05:37:57.121Z,8.85
2018-04-14T05:40:26.045Z,8.95
2018-04-14T05:42:55.004Z,8.83
2018-04-14T05:45:23.791Z,9.00
2018-04-14T05:47:53.400Z,8.93
2018-04-14T05:50:22.198Z,8.81
2018-04-14T05:52:50.919Z,8.83
2018-04-14T05:55:19.868Z,8.87
2018-04-14T05:57:49.070Z,8.79
2018-04-14T06:00:17.843Z,8.88
2018-04-14T06:02:46.705Z,9.07
2018-04-14T06:05:15.393Z,9.03
2018-04-14T06:07:45.664Z,8.96
2018-04-14T06:10:15.522Z,8.83
2018-04-14T06:12:44.309Z,8.87
2018-04-14T06:15:13.197Z,8.97
2018-04-14T06:17:54.223Z,9.06
2018-04-14T06:20:23.120Z,9.08
2018-04-14T06:22:51.806Z,9.08
2018-04-14T06:27:55.569Z,9.18
2018-04-14T06:30:24.353Z,9.06
2018-04-14T06:32:54.021Z,9.30
2018-04-14T06:35:23.531Z,9.60
2018-04-14T06:37:53.144Z,9.34
2018-04-14T06:40:23.559Z,9.16
2018-04-14T06:42:52.357Z,9.39
2018-04-14T06:45:21.150Z,9.50
2018-04-14T06:47:51.885Z,9.22
2018-04-14T06:50:21.317Z,9.42
2018-04-14T06:52:50.017Z,9.64
2018-04-14T06:55:18.756Z,9.97
2018-04-14T06:57:48.428Z,10.20
2018-04-14T07:00:17.097Z,10.37
2018-04-14T07:02:45.873Z,10.34
2018-04-14T07:05:15.530Z,10.20
2018-04-14T07:07:44.565Z,9.77
2018-04-14T07:12:48.849Z,9.58
2018-04-14T07:15:17.518Z,9.82
2018-04-14T07:17:46.159Z,10.04
2018-04-14T07:20:16.702Z,9.82
2018-04-14T07:22:48.491Z,9.99
2018-04-14T07:25:18.018Z,9.96
2018-04-14T07:27:46.738Z,10.22
2018-04-14T07:30:16.655Z,10.44
2018-04-14T07:32:45.865Z,10.60
2018-04-14T07:35:14.544Z,10.82
2018-04-14T07:37:43.843Z,10.57
2018-04-14T07:40:12.632Z,10.86
2018-04-14T07:42:41.456Z,10.93
2018-04-14T07:45:10.108Z,10.91
2018-04-14T07:47:40.767Z,11.04
2018-04-14T07:50:10.147Z,11.24
2018-04-14T07:52:39.702Z,11.14
2018-04-14T07:55:12.538Z,10.85
2018-04-14T07:57:42.406Z,10.78
2018-04-14T08:00:11.761Z,10.51
2018-04-14T08:02:41.462Z,10.32
2018-04-14T08:05:10.467Z,10.38
2018-04-14T08:07:40.066Z,10.56
2018-04-14T08:12:42.492Z,10.38
2018-04-14T08:15:11.279Z,10.53
2018-04-14T08:17:40.984Z,10.49
2018-04-14T08:20:09.644Z,10.68
2018-04-14T08:22:38.536Z,10.31
2018-04-14T08:27:42.322Z,10.16
2018-04-14T08:30:12.065Z,10.42
2018-04-14T08:32:42.500Z,10.40
2018-04-14T08:35:12.969Z,10.60
2018-04-14T08:37:41.855Z,10.35
2018-04-14T08:40:10.666Z,10.44
2018-04-14T08:42:39.359Z,10.27
2018-04-14T08:45:08.204Z,9.92
2018-04-14T08:47:37.793Z,10.35
2018-04-14T08:50:06.436Z,10.31
2018-04-14T08:52:35.168Z,10.38
2018-04-14T08:55:04.828Z,10.57
2018-04-14T08:57:34.534Z,10.51
2018-04-14T09:00:03.480Z,10.60
2018-04-14T09:05:07.518Z,10.93
2018-04-14T09:07:36.411Z,10.42
2018-04-14T09:10:08.623Z,10.58
2018-04-14T09:12:40.886Z,10.87
2018-04-14T09:15:23.964Z,10.92
2018-04-14T09:17:53.171Z,11.10
2018-04-14T09:20:22.256Z,10.98
2018-04-14T09:22:51.355Z,11.18
2018-04-14T09:25:21.218Z,11.68
2018-04-14T09:27:50.170Z,11.89
2018-04-14T09:33:01.000Z,11.62
2018-04-14T09:35:30.153Z,12.05
2018-04-14T09:38:01.563Z,11.91
2018-04-14T09:40:34.388Z,12.20
2018-04-14T09:43:03.943Z,12.30
2018-04-14T09:45:33.954Z,12.53
2018-04-14T09:48:03.012Z,12.30
2018-04-14T09:50:32.102Z,12.12
2018-04-14T09:53:02.124Z,12.51
2018-04-14T09:55:31.152Z,12.50
2018-04-14T09:58:00.244Z,12.77
2018-04-14T10:00:29.358Z,12.85
2018-04-14T10:03:02.605Z,13.00
2018-04-14T10:05:31.810Z,12.80
2018-04-14T10:08:00.790Z,12.89
2018-04-14T10:10:30.693Z,12.86
2018-04-14T10:12:59.979Z,12.50
2018-04-14T10:15:29.616Z,13.12
2018-04-14T10:18:00.563Z,13.02
2018-04-14T10:20:29.651Z,12.66
2018-04-14T10:22:58.597Z,12.63
2018-04-14T10:25:27.547Z,12.75
2018-04-14T10:27:57.501Z,12.54
2018-04-14T10:30:27.573Z,12.36
2018-04-14T10:32:56.744Z,12.76
2018-04-14T10:35:25.666Z,12.76
2018-04-14T10:37:55.050Z,12.60
2018-04-14T10:40:26.627Z,12.38
2018-04-14T10:42:55.737Z,12.09
2018-04-14T10:45:24.731Z,12.55
2018-04-14T10:47:54.835Z,12.61
2018-04-14T10:50:23.802Z,12.45
2018-04-14T10:52:53.568Z,12.65
2018-04-14T10:55:25.206Z,12.55
2018-04-14T10:57:54.192Z,12.66
2018-04-14T11:00:23.293Z,12.89
2018-04-14T11:02:53.247Z,13.01
2018-04-14T11:05:24.758Z,12.89
2018-04-14T11:07:53.887Z,12.98
2018-04-14T11:10:22.985Z,12.44
2018-04-14T11:12:52.666Z,12.34
2018-04-14T11:15:22.071Z,12.33
2018-04-14T11:17:58.231Z,12.53
2018-04-14T11:20:27.506Z,12.20
2018-04-14T11:22:57.292Z,12.09
2018-04-14T11:25:27.810Z,12.16
2018-04-14T11:27:56.821Z,12.26
2018-04-14T11:30:25.908Z,12.52
2018-04-14T11:32:57.723Z,12.63
2018-04-14T11:35:27.679Z,12.68
2018-04-14T11:37:56.640Z,12.78
2018-04-14T11:43:00.915Z,12.38
2018-04-14T11:45:30.680Z,12.64
2018-04-14T11:48:01.652Z,12.44
2018-04-14T11:50:30.924Z,12.44
2018-04-14T11:53:00.056Z,12.35
2018-04-14T11:55:31.571Z,12.52
2018-04-14T11:58:00.669Z,12.42
2018-04-14T12:00:29.864Z,12.33
2018-04-14T12:03:00.609Z,12.20
2018-04-14T12:05:29.634Z,12.45
2018-04-14T12:07:58.693Z,12.38
2018-04-14T12:10:27.799Z,12.32
2018-04-14T12:12:56.782Z,12.36
2018-04-14T12:15:26.738Z,12.42
2018-04-14T12:17:56.639Z,12.31
2018-04-14T12:20:25.737Z,12.35
2018-04-14T12:22:54.748Z,12.48
2018-04-14T12:25:24.566Z,12.20
2018-04-14T12:27:53.716Z,12.12
2018-04-14T12:30:23.889Z,12.09
2018-04-14T12:32:52.852Z,12.24
2018-04-14T12:35:21.858Z,12.10
2018-04-14T12:40:33.977Z,12.56
2018-04-14T12:43:02.941Z,12.57
2018-04-14T12:45:34.595Z,12.71
2018-04-14T12:48:05.027Z,12.66
2018-04-14T12:50:34.272Z,12.43
2018-04-14T12:53:03.321Z,12.19
2018-04-14T12:55:33.145Z,12.26
2018-04-14T12:58:02.273Z,12.23
2018-04-14T13:00:31.555Z,12.28
2018-04-14T13:03:00.666Z,12.23
2018-04-14T13:05:29.750Z,12.04
2018-04-14T13:07:58.973Z,12.01
2018-04-14T13:10:28.152Z,12.25
2018-04-14T13:12:58.340Z,12.13
2018-04-14T13:15:27.998Z,12.03
2018-04-14T13:17:56.960Z,11.96
2018-04-14T13:20:25.870Z,12.12
2018-04-14T13:22:54.829Z,12.29
2018-04-14T13:25:24.785Z,11.92
2018-04-14T13:27:53.842Z,11.93
2018-04-14T13:30:24.441Z,12.30
2018-04-14T13:32:54.593Z,12.53
2018-04-14T13:35:23.827Z,12.13
2018-04-14T13:37:53.027Z,12.08
2018-04-14T13:40:22.748Z,12.26
2018-04-14T13:42:51.653Z,12.12
2018-04-14T13:45:21.558Z,12.02
2018-04-14T13:47:50.401Z,12.00
2018-04-14T13:50:19.322Z,12.03
2018-04-14T13:55:22.909Z,11.96
2018-04-14T13:57:52.823Z,11.98
2018-04-14T14:00:22.746Z,12.09
2018-04-14T14:02:51.777Z,11.96
2018-04-14T14:05:20.735Z,11.91
2018-04-14T14:07:52.686Z,11.70
2018-04-14T14:10:21.895Z,11.56
2018-04-14T14:12:51.816Z,11.54
2018-04-14T14:15:22.661Z,11.52
2018-04-14T14:17:53.564Z,11.36
2018-04-14T14:20:23.026Z,11.29
2018-04-14T14:22:54.101Z,11.20
2018-04-14T14:25:23.092Z,11.44
2018-04-14T14:27:52.154Z,11.51
2018-04-14T14:30:21.155Z,11.50
2018-04-14T14:32:50.204Z,11.52
2018-04-14T14:35:19.244Z,11.69
2018-04-14T14:37:54.242Z,11.88
2018-04-14T14:40:23.585Z,11.68
2018-04-14T14:42:52.654Z,11.29
2018-04-14T14:45:23.341Z,11.27
2018-04-14T14:47:52.471Z,11.29
2018-04-14T14:50:26.889Z,11.26
2018-04-14T14:52:55.967Z,11.26
2018-04-14T14:55:26.836Z,11.34
2018-04-14T14:57:58.121Z,11.34
2018-04-14T15:00:27.217Z,11.37
2018-04-14T15:02:56.623Z,11.14
2018-04-14T15:08:00.952Z,10.96
2018-04-14T15:10:29.907Z,10.73
2018-04-14T15:13:01.980Z,10.84
2018-04-14T15:15:31.477Z,10.68
2018-04-14T15:18:02.004Z,10.77
2018-04-14T15:20:31.131Z,10.74
2018-04-14T15:23:00.101Z,10.67
2018-04-14T15:25:29.300Z,10.59
2018-04-14T15:27:58.499Z,10.66
2018-04-14T15:30:27.496Z,10.68
2018-04-14T15:32:56.488Z,10.48
2018-04-14T15:35:25.675Z,10.50
2018-04-14T15:37:55.493Z,10.43
2018-04-14T15:40:25.638Z,10.47
2018-04-14T15:42:56.753Z,10.52
2018-04-14T15:45:25.755Z,10.64
2018-04-14T15:47:54.964Z,10.53
2018-04-14T15:50:25.472Z,10.50
2018-04-14T15:52:54.677Z,10.57
2018-04-14T15:55:23.668Z,10.43
2018-04-14T15:57:53.443Z,10.21
2018-04-14T16:00:22.631Z,10.33
2018-04-14T16:02:52.425Z,10.35
2018-04-14T16:05:25.079Z,10.29
2018-04-14T16:07:55.311Z,10.31
2018-04-14T16:10:25.352Z,10.25
2018-04-14T16:12:55.780Z,10.21
2018-04-14T16:15:24.750Z,10.19
2018-04-14T16:20:28.397Z,10.16
2018-04-14T16:22:57.602Z,10.22
2018-04-14T16:25:29.422Z,10.25
2018-04-14T16:27:58.914Z,10.25
2018-04-14T16:30:28.809Z,10.35
2018-04-14T16:33:02.572Z,10.37
2018-04-14T16:35:32.313Z,10.34
2018-04-14T16:38:01.455Z,10.18
2018-04-14T16:40:32.500Z,10.17
2018-04-14T16:43:03.136Z,10.16
2018-04-14T16:45:34.378Z,10.23
2018-04-14T16:48:04.607Z,10.31
2018-04-14T16:50:34.007Z,10.34
2018-04-14T16:53:03.204Z,10.42
2018-04-14T16:55:35.275Z,10.26
2018-04-14T16:58:04.467Z,10.27
2018-04-14T17:00:33.706Z,10.26
2018-04-14T17:03:03.790Z,10.28
2018-04-14T17:05:37.049Z,10.29
2018-04-14T17:08:06.117Z,10.32
2018-04-14T17:10:35.221Z,10.29
2018-04-14T17:13:04.315Z,10.20
2018-04-14T17:15:33.195Z,10.28
2018-04-14T17:18:02.253Z,10.03
2018-04-14T17:20:33.155Z,9.94
2018-04-14T17:23:02.190Z,10.07
2018-04-14T17:25:31.978Z,10.18
2018-04-14T17:28:02.723Z,10.23
2018-04-14T17:30:31.832Z,10.17
2018-04-14T17:33:01.235Z,10.08
2018-04-14T17:38:04.632Z,10.11
2018-04-14T17:40:34.565Z,10.17
2018-04-14T17:43:03.649Z,10.28
2018-04-14T17:45:32.600Z,10.15
2018-04-14T17:48:01.818Z,10.14
2018-04-14T17:50:31.837Z,10.16
2018-04-14T17:53:00.976Z,10.03
2018-04-14T17:55:29.970Z,10.03
2018-04-14T17:58:00.699Z,9.99
2018-04-14T18:00:30.311Z,9.94
2018-04-14T18:02:59.614Z,9.89
2018-04-14T18:05:31.267Z,9.92
2018-04-14T18:08:00.607Z,10.07
2018-04-14T18:10:29.707Z,9.84
2018-04-14T18:13:00.576Z,9.89
2018-04-14T18:15:29.637Z,9.94
2018-04-14T18:17:58.955Z,9.83
2018-04-14T18:20:28.997Z,9.94
2018-04-14T18:23:00.474Z,9.96
2018-04-14T18:25:32.726Z,9.90
2018-04-14T18:28:04.710Z,9.92
2018-04-14T18:30:35.749Z,9.85
2018-04-14T18:33:04.869Z,9.84
2018-04-14T18:35:34.203Z,9.92
2018-04-14T18:38:03.454Z,9.96
2018-04-14T18:40:33.981Z,9.91
2018-04-14T18:43:04.039Z,9.95
2018-04-14T18:45:35.791Z,9.92
2018-04-14T18:48:08.429Z,9.83
2018-04-14T18:50:37.689Z,9.76
2018-04-14T18:53:06.875Z,9.88
2018-04-14T18:55:35.929Z,9.95
2018-04-14T18:58:05.237Z,10.06
2018-04-14T19:00:34.440Z,10.01
2018-04-14T19:03:05.287Z,10.12
2018-04-14T19:05:34.463Z,10.00
2018-04-14T19:08:05.660Z,10.01
2018-04-14T19:10:36.508Z,10.02
2018-04-14T19:13:05.743Z,10.03
2018-04-14T19:15:34.686Z,9.95
2018-04-14T19:20:42.560Z,9.96
2018-04-14T19:23:12.104Z,9.90
2018-04-14T19:25:41.900Z,9.84
2018-04-14T19:28:10.980Z,9.94
2018-04-14T19:30:40.893Z,10.03
2018-04-14T19:33:10.747Z,10.09
2018-04-14T19:35:44.413Z,10.00
2018-04-14T19:38:14.539Z,9.98
2018-04-14T19:40:43.476Z,9.91
2018-04-14T19:45:49.035Z,10.10
2018-04-14T19:48:19.025Z,10.02
2018-04-14T19:50:48.196Z,9.90
2018-04-14T19:53:17.453Z,9.97
2018-04-14T19:55:47.537Z,9.93
2018-04-14T19:58:17.743Z,9.79
2018-04-14T20:00:46.701Z,9.92
2018-04-14T20:03:15.675Z,10.06
2018-04-14T20:05:45.340Z,10.02
2018-04-14T20:08:17.452Z,10.07
2018-04-14T20:10:46.505Z,10.11
2018-04-14T20:13:16.433Z,10.18
2018-04-14T20:15:46.027Z,10.17
2018-04-14T20:18:16.813Z,10.08
2018-04-14T20:20:45.960Z,10.08
2018-04-14T20:23:15.052Z,9.99
2018-04-14T20:25:44.162Z,9.99
2018-04-14T20:28:13.173Z,10.03
2018-04-14T20:30:42.286Z,10.09
2018-04-14T20:33:12.204Z,10.10
2018-04-14T20:35:41.259Z,10.08
2018-04-14T20:38:10.464Z,10.11
2018-04-14T20:40:40.357Z,10.07
2018-04-14T20:43:09.343Z,10.05
2018-04-14T20:45:38.353Z,10.18
2018-04-14T20:48:07.657Z,10.16
2018-04-14T20:50:36.964Z,10.13
2018-04-14T20:53:05.954Z,10.20
2018-04-14T20:55:35.169Z,10.13
2018-04-14T20:58:05.183Z,10.01
2018-04-14T21:00:34.271Z,10.12
2018-04-14T21:03:04.137Z,9.94
2018-04-14T21:05:33.233Z,9.97
2018-04-14T21:08:02.167Z,10.05
2018-04-14T21:10:33.056Z,10.08
2018-04-14T21:13:02.107Z,10.21
2018-04-14T21:15:31.402Z,10.26
2018-04-14T21:18:00.611Z,10.36
2018-04-14T21:20:29.703Z,10.42
2018-04-14T21:22:59.036Z,10.41
2018-04-14T21:25:28.756Z,10.42
2018-04-14T21:27:58.611Z,10.46
2018-04-14T21:30:27.827Z,10.39
2018-04-14T21:32:57.854Z,10.48
2018-04-14T21:35:26.949Z,10.50
2018-04-14T21:37:56.959Z,10.55
2018-04-14T21:40:26.059Z,10.47
2018-04-14T21:42:55.015Z,10.45
2018-04-14T21:45:25.594Z,10.53
2018-04-14T21:47:54.524Z,10.56
2018-04-14T21:50:23.929Z,10.65
2018-04-14T21:52:53.070Z,10.62
2018-04-14T21:57:55.974Z,10.61
2018-04-14T22:00:25.174Z,10.58
2018-04-14T22:02:54.286Z,10.57
2018-04-14T22:05:24.368Z,10.63
2018-04-14T22:07:54.413Z,10.65
2018-04-14T22:10:24.304Z,10.64
2018-04-14T22:12:54.147Z,10.61
2018-04-14T22:15:24.364Z,10.65
2018-04-14T22:17:54.146Z,10.67
2018-04-14T22:20:35.664Z,10.69
2018-04-14T22:23:23.478Z,10.75
2018-04-14T22:25:59.458Z,10.73
2018-04-14T22:28:28.961Z,10.72
2018-04-14T22:30:58.884Z,10.48
2018-04-14T22:33:28.433Z,10.43
2018-04-14T22:35:57.338Z,10.49
2018-04-14T22:38:26.369Z,10.43
2018-04-14T22:41:01.014Z,10.22
2018-04-14T22:43:29.999Z,10.02
2018-04-14T22:45:59.183Z,10.09
2018-04-14T22:48:28.698Z,10.04
2018-04-14T22:50:58.270Z,10.04
2018-04-14T22:53:27.405Z,10.17
2018-04-14T22:55:56.557Z,10.16
2018-04-14T22:58:25.600Z,10.18
2018-04-14T23:00:58.075Z,10.11
2018-04-14T23:03:27.954Z,10.16
2018-04-14T23:05:56.962Z,10.14
2018-04-14T23:08:27.692Z,10.20
2018-04-14T23:10:56.711Z,10.16
2018-04-14T23:13:26.728Z,10.18
2018-04-14T23:15:57.160Z,10.24
2018-04-14T23:18:26.254Z,10.17
2018-04-14T23:20:55.269Z,10.22
2018-04-14T23:23:25.464Z,10.16
2018-04-14T23:25:55.133Z,10.10
2018-04-14T23:28:24.221Z,10.08
2018-04-14T23:30:54.191Z,10.10
2018-04-14T23:33:23.238Z,9.85
2018-04-14T23:35:53.109Z,9.93
2018-04-14T23:38:22.402Z,10.11
2018-04-14T23:40:51.390Z,10.12
2018-04-14T23:43:20.696Z,10.21
2018-04-14T23:45:50.678Z,10.30
2018-04-14T23:48:19.648Z,10.24
2018-04-14T23:50:48.697Z,10.21
2018-04-14T23:53:18.671Z,10.23
2018-04-14T23:55:47.774Z,10.32
2018-04-14T23:58:17.523Z,10.38
